x

Prince Edward Pt (45135) Wave Buoy

12:00pm - Fri 22nd May 2015 All times are CDT. -5 hours from GMT.

  • Sig Wave height 1.3ft
  • Peak Period 4s
  • Wind
    13mph, 16mph gusts
  • Sea Temp 41°f
  • Air Temp 43°f
  • Sea Pressure 1017.2mb
  • Prince Edward Pt
  • Prince Edward Pt

More Historic Weather Station data

Upgrade to MSW Pro to gain access to the past 30 days of data for over 8000 Wavebouys and Weather Stations around the globe.

Join Pro

Comparision Forecast

View Surf forecast
   
Fri 05/22 12:00pm 1.3ft 4s 13 16 mph 1017.2mb 41f 43f
11:00am 1.3ft 4s 13
mph
1017.2mb 42f 43f
10:00am 1.3ft 4s 11 13 mph 1017.1mb 42f 43f
9:00am 1.3ft 4s 2
mph
1016.4mb 41f 46f
8:00am 1.3ft 4s 7
mph
1015.8mb 41f 44f
7:00am 1.6ft 4s 9
mph
1015.1mb 41f 45f
6:00am 1.6ft 4s 9
mph
1014.1mb 41f 44f
5:00am 1ft 3s 9 11 mph 1012.5mb 40f 45f
4:00am 1ft 3s 13 16 mph 1011.3mb 40f 44f
3:00am 1ft 3s 13
mph
1010.3mb 40f 44f
2:00am 1ft 3s 11 13 mph 1010.2mb 40f 44f
1:00am 1ft 3s 9
mph
1010.5mb 40f 42f
12:00am 1ft 3s 11
mph
1010.5mb 40f 44f
Thu 05/21 11:00pm 0.3ft 2s 11 13 mph 1010.8mb 39f 44f
10:00pm 0.3ft 2s 9 11 mph 1011.1mb 39f 45f
9:00pm 0.3ft 2s 7 9 mph 1011.4mb 39f 45f
8:00pm 0.3ft 2s 9
mph
1011.2mb 39f 44f
7:00pm 0.3ft 3s 9
mph
1010.6mb 39f 43f
6:00pm 0.3ft 3s 9
mph
1010.6mb 40f 44f
5:00pm 0.3ft 3s 9
mph
1010.8mb 40f 44f
4:00pm 0.3ft 3s 7 9 mph 1011.1mb 40f 44f
3:00pm 0.7ft 3s 9
mph
1011.8mb 40f 43f
2:00pm 0.7ft 3s 7
mph
1012.6mb 40f 43f
1:00pm 0.7ft 3s 9
mph
1013.2mb 40f 43f
12:00pm 1ft 3s 11 13 mph 1013.7mb 39f 44f
11:00am 1ft 3s 11
mph
1014.2mb 39f 42f
10:00am 1ft 3s 13 16 mph 1014.3mb 39f 42f
9:00am 1ft 3s 11
mph
1014.7mb 39f 41f
8:00am 1ft 3s 9
mph
1015.1mb 39f 40f
7:00am 1ft 3s 13
mph
1015.3mb 39f 43f
6:00am 1ft 3s 9 11 mph 1014.9mb 39f 40f
5:00am 1.3ft 4s 11
mph
1015.4mb 39f 41f
4:00am 1.3ft 4s 13 16 mph 1015.4mb 39f 42f
3:00am 1.3ft 3s 9 11 mph 1015.2mb 39f 42f
2:00am 1.6ft 4s 11 13 mph 1015.3mb 39f 43f
1:00am 1.6ft 4s 13 18 mph 1015.2mb 39f 42f
12:00am 1.6ft 4s 13 16 mph 1015.1mb 39f 42f
Wed 05/20 11:00pm 2ft 5s 9 11 mph 1015.6mb 39f 43f
10:00pm 2ft 5s 13 16 mph 1015.6mb 39f 44f
9:00pm 2.5ft 5s 16 18 mph 1015.8mb 39f 44f
8:00pm 3.5ft 5s 13 16 mph 1015.6mb 39f 44f
7:00pm 3.5ft 5s 16 18 mph 1016mb 39f 42f
6:00pm 4ft 5s 18 20 mph 1016mb 39f 44f
5:00pm 4ft 6s 18 20 mph 1016.4mb 39f 42f
4:00pm 4.5ft 5s 18 20 mph 1016.5mb 39f 42f
3:00pm 4.5ft 5s 20 25 mph 1016.8mb 39f 42f
2:00pm 5ft 6s 22 27 mph 1017mb 39f 41f
1:00pm 5ft 6s 25 29 mph 1016.8mb 39f 40f
11:00am 3.5ft 5s 20 25 mph 1017.4mb 39f 40f
10:00am 4ft 5s 18 22 mph 1017.1mb 39f 42f
9:00am 3.5ft 6s 13 16 mph 1017mb 39f 42f
8:00am 4.5ft 6s 16 20 mph 1016.5mb 39f 42f
7:00am 5ft 5s 22 27 mph 1016.1mb 39f 40f
6:00am 4.5ft 5s 25 29 mph 1015.6mb 39f 41f
4:00am 3.5ft 5s 20 25 mph 1014.7mb 39f 40f
3:00am 3ft 5s 18 22 mph 1015.1mb 39f 41f
2:00am 3.5ft 4s 20 25 mph 1014.8mb 39f 42f
1:00am 3ft 4s 25 29 mph 1014.4mb 39f 44f
12:00am 2.5ft 4s 18 27 mph 1014.6mb 39f 45f
Tue 05/19 11:00pm 2ft 5s 13 18 mph 1014.6mb 39f 44f
10:00pm 2ft 5s 18 22 mph 1014.2mb 39f 47f
9:00pm 2.5ft 5s 16
mph
1014.2mb 39f 44f
8:00pm 2.5ft 5s 18 20 mph 1013.8mb 39f 43f
7:00pm  -   -  18
mph
- - -
6:00pm 3.5ft 5s 20 22 mph 1013.4mb 39f 43f
5:00pm 3ft 4s 20 25 mph 1012.7mb 39f 44f
4:00pm 3ft 5s 16 18 mph 1012.3mb 39f 44f
3:00pm 3.5ft 5s 18 22 mph 1011.3mb 39f 45f
2:00pm 3.5ft 4s 22 27 mph 1011.3mb 39f 46f
1:00pm 2ft 4s 20 25 mph 1011.5mb 39f 47f
12:00pm 1.3ft 3s 20 22 mph 1011.7mb 39f 45f
11:00am 1.3ft 3s 18 20 mph 1011.7mb 39f 46f
10:00am 1ft 2s 16 18 mph 1011.5mb 39f 46f
9:00am 0.3ft 2s 13 16 mph 1011.1mb 39f 45f
8:00am 0.3ft 2s 11
mph
1011.1mb 39f 45f
7:00am 0.3ft 2s 7 9 mph 1010.9mb 39f 44f
6:00am 0.3ft 2s 9
mph
1010.9mb 39f 48f
5:00am 0.7ft 2s 7 9 mph 1010.8mb 39f 43f
4:00am 0.7ft 4s 11
mph
1010.6mb 39f 45f
3:00am 0.7ft 2s 11 13 mph 1010.9mb 39f 47f
2:00am  -  2s 11 13 mph 1011.6mb 39f 48f
1:00am  -  2s 9 11 mph 1012.1mb 39f 50f
12:00am  -  2s 4
mph
1013.2mb 39f 45f
Mon 05/18 11:00pm 0.3ft 2s 7 9 mph 1013.1mb 39f 49f
10:00pm 0.3ft 3s 11
mph
1013.1mb 39f 53f
9:00pm  -  5s 11
mph
1013.3mb 39f 50f
8:00pm 0.3ft 4s 11
mph
1013.4mb 39f 50f
7:00pm 0.3ft 4s 9 11 mph 1013.4mb 39f 48f